createdAt,value
2023-04-17T00:02:01.546Z,101027.28
2023-04-17T00:05:03.099Z,101028.97
2023-04-17T00:08:04.566Z,101025.47
2023-04-17T00:11:08.670Z,101020.22
2023-04-17T00:14:10.702Z,101023.75
2023-04-17T00:17:12.100Z,101027.38
2023-04-17T00:20:13.611Z,101021.22
2023-04-17T00:23:14.962Z,101018.56
2023-04-17T00:26:16.526Z,101019.56
2023-04-17T00:29:18.093Z,101024.88
2023-04-17T00:32:19.555Z,101010.84
2023-04-17T00:35:21.120Z,101018.81
2023-04-17T00:38:22.597Z,101014.47
2023-04-17T00:41:24.155Z,101009.28
2023-04-17T00:44:25.583Z,101011.91
2023-04-17T00:47:27.435Z,101011.19
2023-04-17T00:50:29.501Z,101013.13
2023-04-17T00:53:31.580Z,101003.59
2023-04-17T00:56:33.395Z,101004.41
2023-04-17T00:59:37.125Z,101011.44
2023-04-17T01:02:38.688Z,101009.75
2023-04-17T01:05:41.207Z,101001.00
2023-04-17T01:08:43.890Z,101000.16
2023-04-17T01:11:45.806Z,101008.88
2023-04-17T01:14:50.811Z,100994.84
2023-04-17T01:17:52.249Z,100997.50
2023-04-17T01:20:53.731Z,100995.81
2023-04-17T01:23:55.771Z,101003.66
2023-04-17T01:27:03.761Z,100994.03
2023-04-17T01:30:05.863Z,100996.69
2023-04-17T01:33:14.171Z,100995.84
2023-04-17T01:36:16.264Z,101004.69
2023-04-17T01:39:18.246Z,101004.63
2023-04-17T01:42:19.627Z,101004.63
2023-04-17T01:45:21.360Z,101000.25
2023-04-17T01:48:22.728Z,101013.31
2023-04-17T01:51:24.208Z,101011.59
2023-04-17T01:54:25.932Z,101007.16
2023-04-17T01:57:28.161Z,101011.63
2023-04-17T02:00:30.003Z,101008.97
2023-04-17T02:03:32.583Z,101009.88
2023-04-17T02:06:34.531Z,101013.47
2023-04-17T02:09:36.143Z,101003.00
2023-04-17T02:12:37.586Z,101001.22
2023-04-17T02:15:39.074Z,100995.06
2023-04-17T02:18:40.878Z,100999.53
2023-04-17T02:21:42.311Z,101003.06
2023-04-17T02:24:43.921Z,101003.03
2023-04-17T02:27:45.306Z,101012.63
2023-04-17T02:30:46.778Z,101013.47
2023-04-17T02:33:48.216Z,101008.25
2023-04-17T02:36:49.666Z,101012.59
2023-04-17T02:39:54.088Z,101016.09
2023-04-17T02:42:55.848Z,101014.38
2023-04-17T02:45:57.322Z,101010.06
2023-04-17T02:49:00.470Z,101013.59
2023-04-17T02:52:01.886Z,101006.59
2023-04-17T02:55:03.562Z,101005.69
2023-04-17T02:58:05.890Z,101008.34
2023-04-17T03:01:07.319Z,101004.03
2023-04-17T03:04:13.508Z,101008.38
2023-04-17T03:07:18.614Z,101011.06
2023-04-17T03:10:20.018Z,101013.69
2023-04-17T03:13:22.139Z,101010.09
2023-04-17T03:16:23.599Z,101011.97
2023-04-17T03:19:25.169Z,101013.75
2023-04-17T03:22:26.641Z,101011.16
2023-04-17T03:25:28.227Z,101006.81
2023-04-17T03:28:29.768Z,101005.00
2023-04-17T03:31:31.229Z,101007.56
2023-04-17T03:34:32.743Z,101011.00
2023-04-17T03:37:34.407Z,101009.13
2023-04-17T03:40:36.561Z,101011.84
2023-04-17T03:43:37.977Z,101010.09
2023-04-17T03:46:39.418Z,101019.75
2023-04-17T03:49:40.856Z,101017.22
2023-04-17T03:52:43.173Z,101024.34
2023-04-17T03:55:44.590Z,101019.88
2023-04-17T03:58:55.587Z,101027.03
2023-04-17T04:01:57.605Z,101024.44
2023-04-17T04:05:01.427Z,101029.53
2023-04-17T04:08:03.014Z,101031.16
2023-04-17T04:11:24.756Z,101029.53
2023-04-17T04:14:26.382Z,101019.16
2023-04-17T04:17:27.973Z,101027.09
2023-04-17T04:20:30.778Z,101032.41
2023-04-17T04:23:45.541Z,101043.81
2023-04-17T04:26:49.782Z,101037.69
2023-04-17T04:29:51.945Z,101040.31
2023-04-17T04:32:56.906Z,101042.09
2023-04-17T04:36:01.041Z,101044.69
2023-04-17T04:39:06.755Z,101050.75
2023-04-17T04:42:10.656Z,101056.09
2023-04-17T04:45:26.717Z,101051.72
2023-04-17T04:48:29.397Z,101050.75
2023-04-17T04:51:31.837Z,101053.34
2023-04-17T04:54:33.563Z,101055.84
2023-04-17T04:57:36.313Z,101054.94
2023-04-17T05:00:38.344Z,101062.06
2023-04-17T05:03:40.799Z,101056.88
2023-04-17T05:06:44.129Z,101065.63
2023-04-17T05:09:45.608Z,101058.44
2023-04-17T05:12:48.761Z,101059.31
2023-04-17T05:15:51.440Z,101059.31
2023-04-17T05:18:58.445Z,101066.34
2023-04-17T05:22:19.172Z,101061.94
2023-04-17T05:25:35.303Z,101068.09
2023-04-17T05:28:40.865Z,101073.38
2023-04-17T05:31:42.828Z,101069.91
2023-04-17T05:34:57.183Z,101076.00
2023-04-17T05:38:01.510Z,101067.13
2023-04-17T05:41:03.083Z,101074.22
2023-04-17T05:44:04.588Z,101069.81
2023-04-17T05:47:07.014Z,101067.97
2023-04-17T05:50:08.762Z,101064.41
2023-04-17T05:53:10.681Z,101073.16
2023-04-17T05:56:19.785Z,101071.38
2023-04-17T05:59:21.248Z,101069.56
2023-04-17T06:02:23.168Z,101072.19
2023-04-17T06:05:24.898Z,101068.69
2023-04-17T06:08:28.053Z,101075.66
2023-04-17T06:11:29.463Z,101074.81
2023-04-17T06:14:32.745Z,101072.13
2023-04-17T06:17:38.011Z,101076.47
2023-04-17T06:20:40.703Z,101081.72
2023-04-17T06:23:42.118Z,101078.19
2023-04-17T06:26:43.505Z,101078.88
2023-04-17T06:29:45.059Z,101077.91
2023-04-17T06:32:46.632Z,101082.13
2023-04-17T06:35:48.177Z,101084.56
2023-04-17T06:38:58.170Z,101082.47
2023-04-17T06:41:59.584Z,101084.22
2023-04-17T06:45:02.620Z,101085.88
2023-04-17T06:48:04.352Z,101082.22
2023-04-17T06:51:06.097Z,101086.34
2023-04-17T06:54:09.781Z,101087.91
2023-04-17T06:57:12.044Z,101082.59
2023-04-17T07:00:14.212Z,101085.22
2023-04-17T07:03:16.601Z,101090.41
2023-04-17T07:06:19.392Z,101084.25
2023-04-17T07:09:20.842Z,101088.59
2023-04-17T07:12:22.759Z,101086.75
2023-04-17T07:15:24.334Z,101090.22
2023-04-17T07:18:26.759Z,101097.22
2023-04-17T07:21:28.206Z,101095.50
2023-04-17T07:24:29.650Z,101091.88
2023-04-17T07:27:31.083Z,101095.38
2023-04-17T07:30:32.698Z,101098.75
2023-04-17T07:33:37.424Z,101100.34
2023-04-17T07:36:40.541Z,101104.53
2023-04-17T07:39:42.582Z,101108.81
2023-04-17T07:42:44.081Z,101114.84
2023-04-17T07:45:45.491Z,101107.06
2023-04-17T07:48:46.884Z,101114.72
2023-04-17T07:51:48.400Z,101113.84
2023-04-17T07:54:49.790Z,101126.13
2023-04-17T07:57:51.668Z,101115.41
2023-04-17T08:00:53.200Z,101117.81
2023-04-17T08:03:55.530Z,101125.31
2023-04-17T08:06:57.181Z,101113.72
2023-04-17T08:09:58.640Z,101118.69
2023-04-17T08:13:01.887Z,101126.34
2023-04-17T08:16:04.171Z,101132.44
2023-04-17T08:19:05.711Z,101131.41
2023-04-17T08:22:08.048Z,101135.63
2023-04-17T08:25:10.714Z,101130.25
2023-04-17T08:28:12.089Z,101141.47
2023-04-17T08:31:13.922Z,101134.16
2023-04-17T08:34:15.837Z,101137.44
2023-04-17T08:37:17.244Z,101134.56
2023-04-17T08:40:21.400Z,101138.34
2023-04-17T08:43:25.976Z,101135.69
2023-04-17T08:46:28.515Z,101132.72
2023-04-17T08:49:33.627Z,101133.88
2023-04-17T08:52:45.507Z,101141.63
2023-04-17T08:55:48.225Z,101125.34
2023-04-17T08:58:49.592Z,101134.66
2023-04-17T09:02:05.167Z,101124.91
2023-04-17T09:05:19.186Z,101127.44
2023-04-17T09:08:23.962Z,101130.63
2023-04-17T09:11:26.357Z,101127.97
2023-04-17T09:14:31.395Z,101128.53
2023-04-17T09:17:34.596Z,101121.13
2023-04-17T09:20:49.720Z,101125.81
2023-04-17T09:23:55.387Z,101122.09
2023-04-17T09:27:18.600Z,101120.06
2023-04-17T09:30:20.267Z,101118.66
2023-04-17T09:33:21.838Z,101124.16
2023-04-17T09:36:23.469Z,101123.81
2023-04-17T09:39:25.081Z,101126.59
2023-04-17T09:42:27.705Z,101124.75
2023-04-17T09:45:39.954Z,101120.47
2023-04-17T09:48:41.452Z,101120.38
2023-04-17T09:51:42.856Z,101120.38
2023-04-17T09:54:46.277Z,101114.63
2023-04-17T09:57:55.394Z,101128.13
2023-04-17T10:00:57.264Z,101125.47
2023-04-17T10:03:59.534Z,101125.47
2023-04-17T10:07:04.384Z,101117.56
2023-04-17T10:10:10.626Z,101116.06
2023-04-17T10:13:13.158Z,101118.53
2023-04-17T10:16:15.010Z,101125.69
2023-04-17T10:19:33.366Z,101116.28
2023-04-17T10:22:41.102Z,101116.06
2023-04-17T10:25:42.696Z,101109.84
2023-04-17T10:28:49.196Z,101107.84
2023-04-17T10:32:08.934Z,101105.34
2023-04-17T10:35:16.579Z,101103.72
2023-04-17T10:38:32.292Z,101100.22
2023-04-17T10:41:33.796Z,101107.81
2023-04-17T10:44:38.881Z,101101.34
2023-04-17T10:47:40.652Z,101104.44
2023-04-17T10:50:42.730Z,101106.28
2023-04-17T10:53:44.936Z,101097.28
2023-04-17T10:56:48.125Z,101099.19
2023-04-17T11:00:13.721Z,101094.28
2023-04-17T11:03:16.554Z,101097.56
2023-04-17T11:06:19.061Z,101089.53
2023-04-17T11:09:21.881Z,101094.16
2023-04-17T11:12:23.285Z,101093.25
2023-04-17T11:15:31.646Z,101091.41
2023-04-17T11:18:33.162Z,101088.78
2023-04-17T11:21:38.900Z,101089.50
2023-04-17T11:24:40.276Z,101083.19
2023-04-17T11:27:42.314Z,101080.38
2023-04-17T11:30:46.801Z,101081.00
2023-04-17T11:33:48.375Z,101082.53
2023-04-17T11:36:51.484Z,101083.31
2023-04-17T11:39:53.102Z,101082.31
2023-04-17T11:42:54.608Z,101079.59
2023-04-17T11:45:58.243Z,101085.66
2023-04-17T11:48:59.905Z,101082.69
2023-04-17T11:52:03.519Z,101084.50
2023-04-17T11:55:08.924Z,101079.94
2023-04-17T11:58:12.200Z,101089.50
2023-04-17T12:01:13.879Z,101079.50
2023-04-17T12:04:22.066Z,101082.13
2023-04-17T12:07:24.793Z,101075.94
2023-04-17T12:10:38.885Z,101078.69
2023-04-17T12:13:40.301Z,101079.97
2023-04-17T12:16:41.859Z,101077.31
2023-04-17T12:19:45.076Z,101080.66
2023-04-17T12:22:46.504Z,101079.53
2023-04-17T12:25:51.847Z,101080.25
2023-04-17T12:28:54.817Z,101080.91
2023-04-17T12:31:56.421Z,101066.84
2023-04-17T12:35:00.824Z,101077.06
2023-04-17T12:38:02.462Z,101074.31
2023-04-17T12:41:04.052Z,101070.31
2023-04-17T12:44:05.707Z,101070.63
2023-04-17T12:47:07.301Z,101065.28
2023-04-17T12:50:10.886Z,101064.44
2023-04-17T12:53:13.920Z,101067.16
2023-04-17T12:56:15.535Z,101059.59
2023-04-17T12:59:18.382Z,101067.44
2023-04-17T13:02:21.100Z,101062.38
2023-04-17T13:05:25.249Z,101060.72
2023-04-17T13:08:26.709Z,101065.31
2023-04-17T13:11:28.752Z,101060.16
2023-04-17T13:14:30.771Z,101055.34
2023-04-17T13:17:32.239Z,101063.22
2023-04-17T13:20:35.185Z,101066.72
2023-04-17T13:23:36.917Z,101055.34
2023-04-17T13:26:38.418Z,101060.66
2023-04-17T13:29:42.407Z,101046.31
2023-04-17T13:32:44.063Z,101051.03
2023-04-17T13:35:45.733Z,101051.06
2023-04-17T13:38:47.169Z,101049.59
2023-04-17T13:41:49.070Z,101046.72
2023-04-17T13:44:50.588Z,101057.41
2023-04-17T13:47:53.002Z,101051.00
2023-04-17T13:50:54.478Z,101061.88
2023-04-17T13:53:58.624Z,101055.06
2023-04-17T13:57:01.134Z,101047.16
2023-04-17T14:00:02.814Z,101043.16
2023-04-17T14:03:06.230Z,101048.59
2023-04-17T14:06:08.005Z,101040.53
2023-04-17T14:09:11.150Z,101051.97
2023-04-17T14:12:19.597Z,101042.91
2023-04-17T14:15:21.340Z,101048.38
2023-04-17T14:18:27.010Z,101048.63
2023-04-17T14:21:28.749Z,101052.81
2023-04-17T14:24:32.252Z,101051.78
2023-04-17T14:27:37.300Z,101048.31
2023-04-17T14:30:38.896Z,101051.72
2023-04-17T14:33:40.408Z,101051.88
2023-04-17T14:36:43.549Z,101056.72
2023-04-17T14:39:45.428Z,101056.13
2023-04-17T14:42:54.195Z,101053.78
2023-04-17T14:45:57.325Z,101044.44
2023-04-17T14:48:59.808Z,101057.31
2023-04-17T14:52:01.375Z,101051.06
2023-04-17T14:55:03.898Z,101051.03
2023-04-17T14:58:05.493Z,101059.31
2023-04-17T15:01:06.926Z,101052.53
2023-04-17T15:04:08.487Z,101064.19
2023-04-17T15:07:10.120Z,101066.72
2023-04-17T15:10:11.973Z,101067.72
2023-04-17T15:13:13.762Z,101061.75
2023-04-17T15:16:15.433Z,101064.63
2023-04-17T15:19:16.853Z,101062.00
2023-04-17T15:22:20.020Z,101067.31
2023-04-17T15:25:23.934Z,101054.06
2023-04-17T15:28:25.523Z,101056.88
2023-04-17T15:31:27.132Z,101058.47
2023-04-17T15:34:30.169Z,101057.56
2023-04-17T15:37:31.620Z,101054.72
2023-04-17T15:40:33.918Z,101058.28
2023-04-17T15:43:35.653Z,101062.53
2023-04-17T15:46:38.755Z,101067.03
2023-04-17T15:49:40.602Z,101063.69
2023-04-17T15:52:42.176Z,101068.13
2023-04-17T15:55:43.670Z,101064.09
2023-04-17T15:58:45.158Z,101063.38
2023-04-17T16:01:47.694Z,101068.56
2023-04-17T16:04:49.244Z,101062.41
2023-04-17T16:07:50.755Z,101063.22
2023-04-17T16:10:52.139Z,101054.34
2023-04-17T16:13:53.523Z,101060.31
2023-04-17T16:16:54.981Z,101062.94
2023-04-17T16:19:56.927Z,101056.88
2023-04-17T16:22:58.346Z,101058.56
2023-04-17T16:25:59.714Z,101055.09
2023-04-17T16:29:01.105Z,101060.69
2023-04-17T16:32:02.548Z,101061.41
2023-04-17T16:35:04.391Z,101058.66
2023-04-17T16:38:06.077Z,101058.56
2023-04-17T16:41:07.477Z,101055.09
2023-04-17T16:44:08.945Z,101055.09
2023-04-17T16:47:13.855Z,101054.22
2023-04-17T16:50:15.889Z,101061.22
2023-04-17T16:53:17.895Z,101058.50
2023-04-17T16:56:19.390Z,101069.84
2023-04-17T16:59:20.838Z,101069.06
2023-04-17T17:02:23.108Z,101068.97
2023-04-17T17:05:24.691Z,101065.34
2023-04-17T17:08:26.481Z,101071.56
2023-04-17T17:11:27.861Z,101071.72
2023-04-17T17:14:29.328Z,101068.47
2023-04-17T17:17:30.791Z,101076.97
2023-04-17T17:20:32.270Z,101077.06
2023-04-17T17:23:34.492Z,101084.28
2023-04-17T17:26:36.771Z,101084.47
2023-04-17T17:29:38.696Z,101090.63
2023-04-17T17:32:41.001Z,101091.41
2023-04-17T17:35:43.192Z,101089.69
2023-04-17T17:38:44.617Z,101086.19
2023-04-17T17:41:47.438Z,101091.53
2023-04-17T17:44:49.108Z,101086.31
2023-04-17T17:47:50.634Z,101089.03
2023-04-17T17:50:54.872Z,101089.03
2023-04-17T17:53:56.296Z,101089.94
2023-04-17T17:56:57.929Z,101096.19
2023-04-17T17:59:59.936Z,101095.03
2023-04-17T18:03:02.188Z,101099.53
2023-04-17T18:06:04.005Z,101090.09
2023-04-17T18:09:05.459Z,101088.50
2023-04-17T18:12:07.544Z,101084.09
2023-04-17T18:15:09.363Z,101088.50
2023-04-17T18:18:10.830Z,101088.72
2023-04-17T18:21:12.709Z,101096.63
2023-04-17T18:24:14.439Z,101096.81
2023-04-17T18:27:16.082Z,101089.84
2023-04-17T18:30:17.462Z,101093.25
2023-04-17T18:33:19.024Z,101088.84
2023-04-17T18:36:20.398Z,101097.72
2023-04-17T18:39:21.866Z,101092.41
2023-04-17T18:42:23.414Z,101096.00
2023-04-17T18:45:24.984Z,101101.38
2023-04-17T18:48:26.485Z,101103.19
2023-04-17T18:51:28.104Z,101099.63
2023-04-17T18:54:29.691Z,101100.47
2023-04-17T18:57:31.110Z,101107.53
2023-04-17T19:00:32.763Z,101110.31
2023-04-17T19:03:34.890Z,101113.84
2023-04-17T19:06:36.421Z,101112.91
2023-04-17T19:09:37.798Z,101109.50
2023-04-17T19:12:39.979Z,101106.09
2023-04-17T19:15:41.418Z,101120.16
2023-04-17T19:18:42.833Z,101113.97
2023-04-17T19:21:44.218Z,101119.25
2023-04-17T19:24:49.641Z,101115.63
2023-04-17T19:27:51.105Z,101113.84
2023-04-17T19:30:52.493Z,101112.94
2023-04-17T19:33:57.141Z,101115.56
2023-04-17T19:36:58.677Z,101110.31
2023-04-17T19:40:01.336Z,101110.13
2023-04-17T19:43:03.956Z,101123.59
2023-04-17T19:46:05.386Z,101125.44
2023-04-17T19:49:07.030Z,101118.22
2023-04-17T19:52:09.385Z,101118.41
2023-04-17T19:55:11.490Z,101123.75
2023-04-17T19:58:12.882Z,101120.47
2023-04-17T20:01:14.891Z,101123.03
2023-04-17T20:04:16.928Z,101125.94
2023-04-17T20:07:18.477Z,101116.22
2023-04-17T20:10:20.113Z,101120.53
2023-04-17T20:13:22.143Z,101121.53
2023-04-17T20:16:24.054Z,101124.19
2023-04-17T20:19:25.628Z,101125.09
2023-04-17T20:22:27.016Z,101121.53
2023-04-17T20:25:30.281Z,101114.50
2023-04-17T20:28:31.718Z,101115.34
2023-04-17T20:31:36.153Z,101116.41
2023-04-17T20:34:37.960Z,101119.44
2023-04-17T20:37:40.574Z,101106.56
2023-04-17T20:40:42.076Z,101119.84
2023-04-17T20:43:43.545Z,101112.72
2023-04-17T20:46:44.977Z,101113.69
2023-04-17T20:49:46.408Z,101105.72
2023-04-17T20:52:47.830Z,101112.69
2023-04-17T20:55:49.222Z,101108.31
2023-04-17T20:58:50.757Z,101104.00
2023-04-17T21:01:52.392Z,101104.97
2023-04-17T21:04:53.971Z,101102.28
2023-04-17T21:07:57.541Z,101099.72
2023-04-17T21:10:59.003Z,101097.03
2023-04-17T21:14:00.412Z,101110.28
2023-04-17T21:17:01.864Z,101101.59
2023-04-17T21:20:04.856Z,101098.19
2023-04-17T21:23:06.957Z,101105.22
2023-04-17T21:26:08.494Z,101102.72
2023-04-17T21:29:09.866Z,101101.78
2023-04-17T21:32:11.323Z,101101.47
2023-04-17T21:35:12.843Z,101096.50
2023-04-17T21:38:14.262Z,101095.63
2023-04-17T21:41:15.836Z,101103.56
2023-04-17T21:44:17.279Z,101109.78
2023-04-17T21:47:19.536Z,101093.28
2023-04-17T21:50:20.956Z,101102.16
2023-04-17T21:53:22.357Z,101098.66
2023-04-17T21:56:24.450Z,101110.97
2023-04-17T21:59:25.862Z,101098.78
2023-04-17T22:02:27.362Z,101102.31
2023-04-17T22:05:28.780Z,101099.72
2023-04-17T22:08:30.235Z,101090.25
2023-04-17T22:11:31.626Z,101098.19
2023-04-17T22:14:33.037Z,101093.75
2023-04-17T22:17:34.585Z,101091.00
2023-04-17T22:20:36.355Z,101096.53
2023-04-17T22:23:37.734Z,101092.13
2023-04-17T22:26:39.140Z,101096.59
2023-04-17T22:29:40.581Z,101092.25
2023-04-17T22:32:42.384Z,101098.47
2023-04-17T22:35:43.830Z,101087.94
2023-04-17T22:38:45.363Z,101092.31
2023-04-17T22:41:46.957Z,101088.13
2023-04-17T22:44:48.329Z,101082.09
2023-04-17T22:47:49.837Z,101084.66
2023-04-17T22:50:51.268Z,101090.81
2023-04-17T22:53:52.807Z,101092.44
2023-04-17T22:56:54.195Z,101093.41
2023-04-17T22:59:55.602Z,101094.44
2023-04-17T23:02:57.266Z,101084.09
2023-04-17T23:05:58.768Z,101094.72
2023-04-17T23:09:00.183Z,101099.09
2023-04-17T23:12:02.119Z,101095.59
2023-04-17T23:15:04.159Z,101094.78
2023-04-17T23:18:05.707Z,101089.31
2023-04-17T23:21:07.208Z,101089.34
2023-04-17T23:24:08.742Z,101087.63
2023-04-17T23:27:10.140Z,101089.31
2023-04-17T23:30:11.920Z,101085.78
2023-04-17T23:33:13.326Z,101077.16
2023-04-17T23:36:14.823Z,101080.78
2023-04-17T23:39:16.184Z,101086.28
2023-04-17T23:42:17.653Z,101079.22
2023-04-17T23:45:19.047Z,101082.94
2023-04-17T23:48:20.493Z,101079.56
2023-04-17T23:51:21.865Z,101075.16
2023-04-17T23:54:23.319Z,101076.22
2023-04-17T23:57:24.876Z,101073.28
